createdAt,value
2022-11-25T00:01:32.934Z,5.60
2022-11-25T00:04:01.459Z,5.51
2022-11-25T00:06:34.875Z,5.20
2022-11-25T00:09:07.623Z,5.29
2022-11-25T00:11:36.860Z,5.43
2022-11-25T00:14:05.667Z,5.29
2022-11-25T00:16:33.534Z,5.31
2022-11-25T00:19:01.425Z,5.37
2022-11-25T00:21:32.696Z,5.40
2022-11-25T00:24:03.911Z,5.34
2022-11-25T00:26:33.939Z,5.49
2022-11-25T00:29:07.514Z,5.62
2022-11-25T00:31:39.471Z,5.62
2022-11-25T00:34:07.918Z,5.67
2022-11-25T00:36:37.738Z,5.72
2022-11-25T00:39:17.188Z,5.88
2022-11-25T00:42:04.483Z,6.11
2022-11-25T00:44:40.711Z,5.78
2022-11-25T00:47:14.646Z,5.75
2022-11-25T00:49:54.769Z,5.52
2022-11-25T00:52:25.278Z,5.29
2022-11-25T00:54:54.878Z,5.23
2022-11-25T00:57:24.080Z,5.41
2022-11-25T00:59:52.236Z,5.23
2022-11-25T01:02:26.454Z,5.25
2022-11-25T01:04:55.989Z,5.23
2022-11-25T01:07:23.998Z,5.31
2022-11-25T01:09:51.900Z,5.45
2022-11-25T01:12:19.914Z,5.15
2022-11-25T01:14:47.633Z,4.94
2022-11-25T01:17:15.863Z,5.13
2022-11-25T01:19:43.577Z,4.93
2022-11-25T01:22:11.497Z,5.16
2022-11-25T01:24:39.304Z,4.97
2022-11-25T01:27:07.153Z,4.59
2022-11-25T01:29:35.034Z,4.60
2022-11-25T01:32:02.925Z,4.45
2022-11-25T01:34:32.547Z,4.22
2022-11-25T01:37:00.523Z,4.26
2022-11-25T01:39:32.564Z,4.42
2022-11-25T01:42:02.058Z,4.41
2022-11-25T01:44:32.224Z,4.24
2022-11-25T01:47:14.685Z,4.25
2022-11-25T01:49:56.738Z,4.18
2022-11-25T01:52:33.125Z,4.51
2022-11-25T01:55:09.964Z,4.80
2022-11-25T01:57:43.942Z,4.91
2022-11-25T02:00:12.889Z,4.57
2022-11-25T02:02:49.587Z,4.40
2022-11-25T02:05:21.622Z,4.50
2022-11-25T02:07:53.139Z,4.37
2022-11-25T02:10:31.262Z,4.36
2022-11-25T02:12:59.679Z,4.55
2022-11-25T02:15:29.602Z,4.50
2022-11-25T02:17:57.613Z,4.27
2022-11-25T02:20:25.736Z,4.41
2022-11-25T02:23:16.984Z,4.50
2022-11-25T02:25:46.981Z,4.58
2022-11-25T02:28:29.560Z,4.61
2022-11-25T02:30:58.351Z,4.50
2022-11-25T02:33:27.860Z,4.69
2022-11-25T02:35:59.590Z,4.86
2022-11-25T02:38:42.560Z,4.99
2022-11-25T02:41:16.414Z,4.91
2022-11-25T02:43:46.103Z,4.98
2022-11-25T02:46:22.446Z,4.98
2022-11-25T02:49:09.934Z,5.03
2022-11-25T02:51:41.137Z,5.10
2022-11-25T02:54:10.459Z,5.16
2022-11-25T02:56:40.122Z,5.28
2022-11-25T02:59:10.056Z,5.14
2022-11-25T03:01:38.913Z,5.23
2022-11-25T03:04:08.080Z,4.97
2022-11-25T03:06:36.615Z,4.99
2022-11-25T03:09:04.399Z,5.10
2022-11-25T03:11:51.292Z,5.03
2022-11-25T03:14:20.363Z,5.00
2022-11-25T03:16:48.171Z,5.01
2022-11-25T03:19:16.068Z,5.04
2022-11-25T03:21:46.117Z,4.98
2022-11-25T03:24:14.023Z,5.00
2022-11-25T03:26:41.757Z,5.00
2022-11-25T03:29:09.586Z,4.90
2022-11-25T03:31:40.760Z,4.82
2022-11-25T03:34:10.576Z,4.92
2022-11-25T03:36:39.384Z,4.63
2022-11-25T03:39:07.319Z,4.45
2022-11-25T03:41:35.556Z,4.54
2022-11-25T03:44:03.464Z,4.57
2022-11-25T03:46:31.274Z,4.54
2022-11-25T03:48:59.509Z,4.32
2022-11-25T03:51:28.720Z,4.19
2022-11-25T03:53:56.649Z,4.13
2022-11-25T03:56:24.679Z,4.03
2022-11-25T03:58:52.698Z,4.10
2022-11-25T04:01:20.778Z,4.09
2022-11-25T04:03:48.643Z,4.01
2022-11-25T04:06:20.167Z,4.34
2022-11-25T04:08:48.781Z,4.55
2022-11-25T04:11:17.332Z,4.51
2022-11-25T04:13:46.356Z,4.62
2022-11-25T04:16:25.044Z,4.67
2022-11-25T04:18:53.313Z,4.76
2022-11-25T04:21:21.307Z,4.60
2022-11-25T04:23:49.204Z,4.66
2022-11-25T04:26:17.092Z,4.54
2022-11-25T04:28:45.848Z,4.38
2022-11-25T04:31:14.185Z,4.52
2022-11-25T04:33:45.961Z,4.64
2022-11-25T04:36:16.419Z,4.78
2022-11-25T04:38:46.547Z,4.76
2022-11-25T04:41:14.638Z,4.83
2022-11-25T04:43:43.709Z,4.85
2022-11-25T04:46:19.422Z,4.70
2022-11-25T04:48:50.440Z,4.77
2022-11-25T04:51:18.474Z,4.85
2022-11-25T04:53:47.182Z,4.89
2022-11-25T04:56:18.907Z,5.04
2022-11-25T04:59:05.909Z,5.03
2022-11-25T05:01:33.959Z,4.99
2022-11-25T05:04:09.581Z,4.85
2022-11-25T05:06:37.737Z,4.88
2022-11-25T05:09:06.674Z,4.76
2022-11-25T05:11:36.732Z,4.55
2022-11-25T05:14:04.830Z,4.54
2022-11-25T05:16:33.728Z,4.54
2022-11-25T05:19:02.110Z,4.54
2022-11-25T05:21:30.791Z,4.77
2022-11-25T05:23:59.710Z,4.97
2022-11-25T05:26:29.427Z,4.97
2022-11-25T05:29:00.565Z,5.00
2022-11-25T05:31:30.488Z,4.93
2022-11-25T05:34:02.078Z,4.90
2022-11-25T05:36:32.385Z,4.97
2022-11-25T05:39:00.466Z,4.97
2022-11-25T05:41:47.796Z,4.98
2022-11-25T05:44:21.205Z,4.90
2022-11-25T05:46:51.263Z,5.03
2022-11-25T05:49:19.998Z,5.12
2022-11-25T05:51:49.942Z,4.96
2022-11-25T05:54:19.879Z,4.87
2022-11-25T05:56:48.053Z,4.82
2022-11-25T05:59:41.830Z,4.86
2022-11-25T06:02:14.949Z,4.83
2022-11-25T06:04:43.773Z,4.75
2022-11-25T06:07:11.902Z,4.71
2022-11-25T06:09:40.347Z,4.93
2022-11-25T06:12:08.256Z,4.90
2022-11-25T06:14:39.521Z,4.92
2022-11-25T06:17:07.784Z,4.75
2022-11-25T06:19:40.554Z,4.49
2022-11-25T06:22:08.880Z,4.45
2022-11-25T06:24:37.080Z,4.48
2022-11-25T06:27:08.155Z,4.65
2022-11-25T06:29:36.310Z,4.83
2022-11-25T06:32:04.484Z,4.84
2022-11-25T06:34:42.143Z,4.86
2022-11-25T06:37:16.615Z,5.03
2022-11-25T06:39:44.448Z,5.07
2022-11-25T06:42:12.321Z,5.12
2022-11-25T06:44:40.231Z,5.05
2022-11-25T06:47:08.466Z,4.93
2022-11-25T06:49:36.685Z,4.84
2022-11-25T06:52:04.671Z,4.77
2022-11-25T06:54:32.484Z,4.76
2022-11-25T06:57:00.438Z,4.61
2022-11-25T06:59:28.501Z,4.73
2022-11-25T07:01:56.753Z,4.91
2022-11-25T07:04:24.813Z,4.95
2022-11-25T07:06:52.917Z,4.90
2022-11-25T07:09:22.425Z,4.95
2022-11-25T07:11:50.440Z,5.00
2022-11-25T07:14:18.536Z,5.19
2022-11-25T07:16:47.176Z,5.31
2022-11-25T07:19:16.913Z,5.48
2022-11-25T07:21:46.112Z,5.49
2022-11-25T07:24:15.882Z,5.43
2022-11-25T07:26:45.178Z,5.51
2022-11-25T07:29:50.363Z,5.45
2022-11-25T07:32:10.553Z,5.28
2022-11-25T07:34:39.675Z,5.35
2022-11-25T07:37:09.041Z,5.46
2022-11-25T07:39:37.444Z,5.43
2022-11-25T07:42:06.001Z,5.38
2022-11-25T07:44:34.445Z,5.40
2022-11-25T07:47:13.679Z,5.52
2022-11-25T07:49:42.005Z,5.61
2022-11-25T07:52:10.804Z,5.77
2022-11-25T07:54:38.862Z,5.86
2022-11-25T07:57:06.808Z,5.96
2022-11-25T07:59:36.378Z,6.02
2022-11-25T08:02:04.633Z,6.06
2022-11-25T08:04:32.611Z,5.96
2022-11-25T08:07:00.570Z,6.00
2022-11-25T08:09:28.669Z,6.10
2022-11-25T08:11:56.671Z,6.12
2022-11-25T08:14:25.857Z,6.16
2022-11-25T08:16:53.810Z,6.03
2022-11-25T08:19:23.137Z,6.02
2022-11-25T08:21:54.785Z,6.05
2022-11-25T08:24:22.729Z,6.10
2022-11-25T08:26:51.641Z,6.21
2022-11-25T08:29:20.538Z,6.21
2022-11-25T08:31:48.478Z,6.23
2022-11-25T08:34:20.306Z,6.29
2022-11-25T08:36:49.511Z,6.35
2022-11-25T08:42:07.611Z,5.90
2022-11-25T08:44:36.400Z,6.06
2022-11-25T08:47:04.451Z,6.19
2022-11-25T08:49:36.198Z,6.19
2022-11-25T08:52:39.125Z,6.43
2022-11-25T08:55:08.596Z,6.60
2022-11-25T08:57:36.637Z,6.50
2022-11-25T09:00:06.385Z,6.58
2022-11-25T09:02:34.817Z,6.47
2022-11-25T09:05:03.201Z,6.35
2022-11-25T09:07:31.463Z,6.41
2022-11-25T09:09:59.566Z,6.34
2022-11-25T09:12:27.539Z,6.47
2022-11-25T09:14:55.479Z,6.67
2022-11-25T09:17:23.874Z,6.71
2022-11-25T09:19:52.483Z,6.70
2022-11-25T09:22:20.995Z,6.48
2022-11-25T09:24:49.475Z,6.56
2022-11-25T09:27:18.463Z,6.60
2022-11-25T09:29:46.608Z,6.69
2022-11-25T09:32:15.279Z,6.61
2022-11-25T09:34:48.619Z,6.63
2022-11-25T09:37:17.324Z,6.80
2022-11-25T09:51:32.725Z,4.60
2022-11-25T09:54:26.664Z,5.39
2022-11-25T09:57:13.988Z,5.81
2022-11-25T09:59:52.662Z,6.16
2022-11-25T10:02:29.400Z,6.50
2022-11-25T10:05:21.786Z,6.65
2022-11-25T10:07:53.984Z,6.77
2022-11-25T10:10:41.930Z,7.01
2022-11-25T10:13:32.257Z,7.12
2022-11-25T10:16:04.217Z,7.14
2022-11-25T10:18:39.980Z,7.29
2022-11-25T10:21:11.674Z,7.28
2022-11-25T10:23:40.234Z,7.32
2022-11-25T10:26:16.944Z,7.37
2022-11-25T10:29:06.251Z,7.53
2022-11-25T10:31:37.670Z,7.68
2022-11-25T10:40:01.765Z,6.26
2022-11-25T10:42:30.453Z,6.74
2022-11-25T10:44:58.708Z,6.98
2022-11-25T10:47:33.182Z,7.27
2022-11-25T10:50:20.213Z,7.54
2022-11-25T10:53:00.290Z,7.71
2022-11-25T10:55:36.141Z,7.77
2022-11-25T10:58:28.750Z,7.57
2022-11-25T11:01:19.936Z,7.47
2022-11-25T11:03:55.587Z,7.69
2022-11-25T11:06:31.614Z,7.71
2022-11-25T11:09:00.513Z,7.67
2022-11-25T11:11:29.538Z,7.78
2022-11-25T11:14:12.569Z,7.74
2022-11-25T11:16:45.747Z,7.75
2022-11-25T11:19:30.155Z,7.90
2022-11-25T11:22:16.337Z,8.07
2022-11-25T11:24:44.415Z,8.12
2022-11-25T11:27:21.265Z,8.17
2022-11-25T11:30:09.176Z,8.28
2022-11-25T11:32:39.679Z,8.26
2022-11-25T11:35:19.321Z,8.08
2022-11-25T11:37:54.369Z,7.59
2022-11-25T11:40:46.620Z,7.58
2022-11-25T11:43:24.023Z,7.60
2022-11-25T11:46:26.108Z,7.41
2022-11-25T11:49:30.688Z,7.21
2022-11-25T11:52:45.192Z,7.30
2022-11-25T11:55:41.568Z,7.48
2022-11-25T11:58:46.999Z,7.72
2022-11-25T12:01:26.847Z,7.86
2022-11-25T12:04:11.746Z,7.95
2022-11-25T12:06:43.247Z,8.08
2022-11-25T12:09:20.118Z,7.87
2022-11-25T12:12:04.220Z,7.50
2022-11-25T12:14:44.324Z,7.44
2022-11-25T12:17:26.010Z,7.71
2022-11-25T12:20:24.308Z,7.89
2022-11-25T12:23:02.266Z,7.86
2022-11-25T12:25:36.208Z,7.98
2022-11-25T12:28:20.518Z,7.99
2022-11-25T12:31:17.366Z,8.13
2022-11-25T12:33:52.450Z,8.17
2022-11-25T12:36:47.880Z,8.14
2022-11-25T12:39:37.430Z,8.07
2022-11-25T12:42:14.527Z,8.07
2022-11-25T12:44:58.564Z,8.00
2022-11-25T12:47:27.592Z,7.85
2022-11-25T12:49:57.149Z,7.91
2022-11-25T12:53:02.186Z,7.95
2022-11-25T12:55:32.131Z,7.97
2022-11-25T12:58:29.245Z,8.02
2022-11-25T13:01:22.135Z,7.95
2022-11-25T13:04:01.996Z,7.98
2022-11-25T13:06:49.584Z,8.06
2022-11-25T13:09:51.685Z,8.08
2022-11-25T13:12:28.267Z,8.18
2022-11-25T13:15:19.592Z,8.30
2022-11-25T13:17:51.879Z,8.32
2022-11-25T13:20:29.796Z,8.21
2022-11-25T13:23:08.127Z,8.26
2022-11-25T13:25:40.467Z,8.28
2022-11-25T13:28:34.380Z,8.36
2022-11-25T13:31:32.064Z,8.41
2022-11-25T13:34:19.664Z,8.44
2022-11-25T13:37:00.209Z,8.38
2022-11-25T13:39:31.213Z,8.30
2022-11-25T13:42:08.941Z,8.19
2022-11-25T13:44:52.883Z,8.06
2022-11-25T13:47:35.251Z,7.83
2022-11-25T13:50:36.823Z,7.64
2022-11-25T13:53:31.204Z,7.55
2022-11-25T13:56:26.868Z,7.59
2022-11-25T13:59:11.034Z,7.68
2022-11-25T14:01:41.264Z,7.85
2022-11-25T14:04:13.314Z,7.92
2022-11-25T14:07:14.450Z,7.94
2022-11-25T14:10:03.451Z,7.93
2022-11-25T14:13:03.155Z,7.83
2022-11-25T14:16:23.558Z,7.99
2022-11-25T14:19:49.619Z,7.88
2022-11-25T14:22:24.700Z,7.83
2022-11-25T14:25:01.895Z,7.86
2022-11-25T14:27:37.443Z,7.86
2022-11-25T14:30:10.736Z,7.72
2022-11-25T14:32:53.577Z,7.76
2022-11-25T14:35:29.134Z,7.77
2022-11-25T14:38:04.555Z,7.67
2022-11-25T14:41:17.168Z,7.58
2022-11-25T14:43:52.487Z,7.46
2022-11-25T14:46:26.007Z,7.58
2022-11-25T14:49:07.641Z,7.65
2022-11-25T14:51:46.965Z,7.75
2022-11-25T14:54:15.924Z,7.91
2022-11-25T14:56:45.470Z,8.00
2022-11-25T14:59:15.441Z,8.03
2022-11-25T15:01:55.021Z,8.03
2022-11-25T15:04:25.711Z,8.01
2022-11-25T15:07:02.763Z,8.03
2022-11-25T15:09:42.639Z,8.02
2022-11-25T15:12:19.064Z,8.04
2022-11-25T15:14:53.771Z,8.01
2022-11-25T15:17:32.079Z,7.73
2022-11-25T15:20:15.354Z,7.77
2022-11-25T15:22:50.346Z,7.71
2022-11-25T15:25:19.305Z,7.84
2022-11-25T15:27:53.873Z,7.95
2022-11-25T15:30:29.541Z,7.80
2022-11-25T15:32:58.806Z,7.72
2022-11-25T15:35:28.191Z,7.66
2022-11-25T15:37:57.812Z,7.54
2022-11-25T15:40:44.131Z,7.59
2022-11-25T15:43:25.139Z,7.56
2022-11-25T15:46:01.763Z,7.62
2022-11-25T15:48:51.941Z,7.70
2022-11-25T15:51:32.715Z,7.77
2022-11-25T15:54:19.259Z,7.65
2022-11-25T15:56:51.476Z,7.45
2022-11-25T15:59:40.764Z,7.28
2022-11-25T16:02:42.592Z,7.12
2022-11-25T16:05:17.603Z,7.08
2022-11-25T16:07:52.672Z,7.06
2022-11-25T16:10:31.893Z,7.01
2022-11-25T16:13:31.913Z,7.09
2022-11-25T16:16:23.760Z,7.04
2022-11-25T16:19:02.764Z,6.93
2022-11-25T16:21:38.998Z,6.89
2022-11-25T16:24:40.870Z,6.85
2022-11-25T16:27:24.949Z,6.71
2022-11-25T16:29:55.018Z,6.69
2022-11-25T16:32:24.350Z,6.70
2022-11-25T16:34:57.192Z,6.73
2022-11-25T16:37:32.624Z,6.86
2022-11-25T16:40:02.703Z,6.79
2022-11-25T16:42:31.350Z,6.70
2022-11-25T16:45:01.452Z,6.73
2022-11-25T16:47:30.661Z,6.73
2022-11-25T16:49:59.586Z,6.70
2022-11-25T16:52:28.936Z,6.79
2022-11-25T16:54:57.759Z,6.82
2022-11-25T16:57:29.945Z,6.81
2022-11-25T17:00:07.723Z,6.81
2022-11-25T17:02:36.584Z,6.86
2022-11-25T17:05:26.850Z,6.72
2022-11-25T17:07:58.822Z,6.88
2022-11-25T17:10:28.434Z,6.91
2022-11-25T17:13:03.652Z,6.84
2022-11-25T17:15:38.194Z,6.98
2022-11-25T17:18:09.414Z,7.07
2022-11-25T17:20:40.256Z,6.94
2022-11-25T17:23:17.582Z,7.01
2022-11-25T17:25:50.170Z,6.98
2022-11-25T17:28:21.589Z,7.04
2022-11-25T17:30:50.865Z,7.06
2022-11-25T17:33:26.813Z,7.09
2022-11-25T17:35:56.220Z,7.07
2022-11-25T17:38:27.570Z,7.14
2022-11-25T17:40:56.246Z,7.20
2022-11-25T17:43:30.370Z,7.25
2022-11-25T17:46:02.472Z,7.25
2022-11-25T17:48:31.786Z,7.19
2022-11-25T17:51:07.215Z,7.25
2022-11-25T17:53:38.887Z,7.31
2022-11-25T17:56:28.867Z,7.28
2022-11-25T17:59:04.746Z,7.05
2022-11-25T18:01:39.025Z,7.06
2022-11-25T18:04:16.489Z,7.06
2022-11-25T18:06:48.084Z,6.91
2022-11-25T18:09:17.469Z,6.76
2022-11-25T18:11:53.415Z,6.64
2022-11-25T18:14:26.509Z,6.62
2022-11-25T18:16:56.569Z,6.58
2022-11-25T18:19:26.080Z,6.53
2022-11-25T18:22:01.025Z,6.40
2022-11-25T18:24:33.560Z,6.37
2022-11-25T18:27:11.004Z,6.33
2022-11-25T18:29:42.220Z,6.32
2022-11-25T18:32:16.840Z,6.31
2022-11-25T18:34:50.792Z,6.33
2022-11-25T18:37:22.320Z,6.43
2022-11-25T18:39:57.979Z,6.50
2022-11-25T18:42:31.984Z,6.28
2022-11-25T18:47:04.715Z,6.12
2022-11-25T18:49:33.488Z,5.99
2022-11-25T18:52:02.295Z,6.19
2022-11-25T18:54:31.519Z,6.19
2022-11-25T18:57:02.128Z,6.17
2022-11-25T18:59:37.473Z,6.42
2022-11-25T19:02:22.109Z,6.64
2022-11-25T19:04:58.527Z,6.32
2022-11-25T19:07:30.159Z,6.23
2022-11-25T19:09:57.568Z,6.10
2022-11-25T19:12:27.025Z,5.96
2022-11-25T19:14:59.659Z,6.10
2022-11-25T19:17:34.063Z,6.34
2022-11-25T19:20:12.742Z,6.38
2022-11-25T19:22:41.813Z,6.47
2022-11-25T19:25:15.962Z,6.33
2022-11-25T19:27:51.896Z,6.58
2022-11-25T19:30:25.775Z,6.73
2022-11-25T19:32:57.079Z,6.74
2022-11-25T19:35:29.458Z,6.80
2022-11-25T19:37:57.421Z,6.88
2022-11-25T19:40:24.981Z,6.81
2022-11-25T19:42:52.371Z,6.76
2022-11-25T19:45:20.648Z,6.76
2022-11-25T19:47:55.387Z,6.81
2022-11-25T19:50:28.266Z,6.84
2022-11-25T19:52:55.906Z,6.88
2022-11-25T19:55:29.979Z,7.04
2022-11-25T19:57:58.555Z,7.24
2022-11-25T20:00:27.989Z,7.25
2022-11-25T20:02:56.928Z,7.14
2022-11-25T20:05:37.898Z,7.04
2022-11-25T20:08:08.147Z,6.96
2022-11-25T20:10:35.953Z,6.82
2022-11-25T20:13:06.566Z,6.96
2022-11-25T20:15:38.555Z,6.92
2022-11-25T20:32:31.275Z,6.90
2022-11-25T20:35:28.364Z,6.73
2022-11-25T20:37:57.382Z,6.53
2022-11-25T20:40:32.433Z,6.58
2022-11-25T20:43:01.128Z,6.54
2022-11-25T20:45:27.839Z,6.66
2022-11-25T20:47:55.185Z,6.66
2022-11-25T20:50:22.036Z,6.78
2022-11-25T20:52:51.976Z,7.00
2022-11-25T20:55:24.870Z,7.06
2022-11-25T20:57:52.290Z,6.86
2022-11-25T21:00:26.965Z,6.75
2022-11-25T21:02:56.953Z,6.74
2022-11-25T21:05:27.730Z,6.49
2022-11-25T21:07:55.477Z,6.56
2022-11-25T21:10:27.214Z,6.63
2022-11-25T21:12:55.946Z,6.86
2022-11-25T21:15:25.477Z,7.08
2022-11-25T21:17:52.854Z,7.21
2022-11-25T21:20:20.091Z,7.26
2022-11-25T21:22:49.545Z,7.32
2022-11-25T21:25:19.507Z,7.24
2022-11-25T21:27:48.299Z,7.19
2022-11-25T21:30:20.769Z,7.28
2022-11-25T21:32:48.022Z,7.43
2022-11-25T21:35:14.942Z,7.47
2022-11-25T21:37:43.810Z,7.48
2022-11-25T21:40:38.244Z,7.54
2022-11-25T21:43:12.909Z,7.59
2022-11-25T21:45:41.598Z,7.54
2022-11-25T21:52:27.258Z,7.23
2022-11-25T22:00:00.102Z,6.82
2022-11-25T22:07:06.275Z,6.30
2022-11-25T22:09:32.770Z,6.31
2022-11-25T22:12:00.032Z,6.41
2022-11-25T22:14:34.038Z,6.54
2022-11-25T22:17:05.551Z,6.68
2022-11-25T22:19:32.871Z,6.71
2022-11-25T22:21:59.281Z,6.81
2022-11-25T22:24:25.653Z,6.76
2022-11-25T22:26:57.842Z,6.90
2022-11-25T22:29:32.853Z,6.87
2022-11-25T22:32:00.487Z,6.95
2022-11-25T22:34:27.989Z,6.96
2022-11-25T22:36:54.470Z,6.94
2022-11-25T22:39:25.441Z,7.04
2022-11-25T22:42:01.917Z,7.17
2022-11-25T22:44:42.179Z,7.11
2022-11-25T22:47:28.481Z,7.19
2022-11-25T22:49:55.050Z,7.13
2022-11-25T22:52:27.044Z,6.95
2022-11-25T22:54:54.640Z,6.76
2022-11-25T22:57:21.956Z,6.69
2022-11-25T22:59:49.188Z,6.50
2022-11-25T23:02:20.004Z,6.49
2022-11-25T23:04:51.934Z,6.51
2022-11-25T23:07:20.601Z,6.42
2022-11-25T23:09:47.453Z,6.51
2022-11-25T23:12:14.935Z,6.47
2022-11-25T23:14:42.203Z,6.41
2022-11-25T23:17:24.822Z,6.41
2022-11-25T23:19:51.609Z,6.42
2022-11-25T23:22:18.890Z,6.39
2022-11-25T23:24:47.540Z,6.40
2022-11-25T23:27:15.651Z,6.56
2022-11-25T23:29:42.160Z,6.74
2022-11-25T23:32:18.280Z,6.88
2022-11-25T23:34:45.047Z,7.00
2022-11-25T23:37:13.009Z,6.93
2022-11-25T23:39:39.783Z,6.98
2022-11-25T23:42:16.471Z,6.97
2022-11-25T23:44:43.532Z,7.05
2022-11-25T23:47:16.753Z,7.13
2022-11-25T23:49:45.847Z,7.10
2022-11-25T23:52:23.517Z,7.17
2022-11-25T23:54:51.820Z,7.15
2022-11-25T23:57:25.444Z,7.12
2022-11-25T23:59:52.568Z,7.01
